createdAt,value
2023-03-26T00:01:31.347Z,12.90
2023-03-26T00:04:06.617Z,15.10
2023-03-26T00:06:45.350Z,8.13
2023-03-26T00:09:13.790Z,11.60
2023-03-26T00:11:49.299Z,15.43
2023-03-26T00:14:18.016Z,7.87
2023-03-26T00:16:54.374Z,10.93
2023-03-26T00:19:23.009Z,11.77
2023-03-26T00:21:58.351Z,7.33
2023-03-26T00:24:36.331Z,7.87
2023-03-26T00:27:05.880Z,19.60
2023-03-26T00:29:40.411Z,9.00
2023-03-26T00:32:07.910Z,9.00
2023-03-26T00:34:43.457Z,8.00
2023-03-26T00:37:14.434Z,10.77
2023-03-26T00:39:49.460Z,10.30
2023-03-26T00:42:23.452Z,17.23
2023-03-26T00:45:01.474Z,11.57
2023-03-26T00:47:37.479Z,12.33
2023-03-26T00:50:22.401Z,10.57
2023-03-26T00:52:56.414Z,9.83
2023-03-26T00:55:30.439Z,10.30
2023-03-26T00:57:57.935Z,11.33
2023-03-26T01:00:41.457Z,14.63
2023-03-26T01:03:24.822Z,5.43
2023-03-26T01:06:34.406Z,9.23
2023-03-26T01:09:23.440Z,7.57
2023-03-26T01:11:51.423Z,7.40
2023-03-26T01:14:30.488Z,7.30
2023-03-26T01:17:07.457Z,10.97
2023-03-26T01:19:47.465Z,11.03
2023-03-26T01:22:19.288Z,9.57
2023-03-26T01:24:59.413Z,8.97
2023-03-26T01:27:51.482Z,9.10
2023-03-26T01:30:49.453Z,5.97
2023-03-26T01:33:41.217Z,13.37
2023-03-26T01:36:34.408Z,7.53
2023-03-26T01:39:20.463Z,17.70
2023-03-26T01:41:57.507Z,5.23
2023-03-26T01:44:55.509Z,7.60
2023-03-26T01:47:30.507Z,9.40
2023-03-26T01:50:11.424Z,6.73
2023-03-26T01:52:39.794Z,41.40
2023-03-26T01:55:18.479Z,13.17
2023-03-26T01:58:25.462Z,11.13
2023-03-26T02:01:05.416Z,18.83
2023-03-26T02:03:45.485Z,9.87
2023-03-26T02:06:37.767Z,5.90
2023-03-26T02:09:19.435Z,6.53
2023-03-26T02:11:48.919Z,10.10
2023-03-26T02:14:23.463Z,12.43
2023-03-26T02:16:51.705Z,8.97
2023-03-26T02:19:28.447Z,16.93
2023-03-26T02:21:59.982Z,16.03
2023-03-26T02:24:34.442Z,9.57
2023-03-26T02:27:02.380Z,6.57
2023-03-26T02:29:37.467Z,10.67
2023-03-26T02:32:13.480Z,12.20
2023-03-26T02:34:49.442Z,11.93
2023-03-26T02:37:25.464Z,11.27
2023-03-26T02:39:53.133Z,10.53
2023-03-26T02:42:28.728Z,16.53
2023-03-26T02:44:56.280Z,11.53
2023-03-26T02:47:23.775Z,10.70
2023-03-26T02:49:57.495Z,13.60
2023-03-26T02:52:31.612Z,10.03
2023-03-26T02:55:05.445Z,8.63
2023-03-26T02:57:39.433Z,9.17
2023-03-26T03:00:15.800Z,13.53
2023-03-26T03:02:44.603Z,11.57
2023-03-26T03:05:18.464Z,10.27
2023-03-26T03:07:46.821Z,9.77
2023-03-26T03:10:22.476Z,8.53
2023-03-26T03:12:56.452Z,10.47
2023-03-26T03:15:30.407Z,10.83
2023-03-26T03:18:04.537Z,12.23
2023-03-26T03:20:35.458Z,12.30
2023-03-26T03:23:09.458Z,11.43
2023-03-26T03:25:45.432Z,7.90
2023-03-26T03:28:20.520Z,11.77
2023-03-26T03:30:55.511Z,10.80
2023-03-26T03:33:23.337Z,12.47
2023-03-26T03:35:51.174Z,13.27
2023-03-26T03:38:25.436Z,6.93
2023-03-26T03:40:55.570Z,12.10
2023-03-26T03:43:29.450Z,15.90
2023-03-26T03:45:57.319Z,22.63
2023-03-26T03:48:31.477Z,12.10
2023-03-26T03:51:06.200Z,7.83
2023-03-26T03:53:43.461Z,9.23
2023-03-26T03:56:11.026Z,8.43
2023-03-26T03:58:45.451Z,16.70
2023-03-26T04:01:20.483Z,9.33
2023-03-26T04:03:54.637Z,14.23
2023-03-26T04:06:28.519Z,12.50
2023-03-26T04:08:58.151Z,15.70
2023-03-26T04:11:33.605Z,12.77
2023-03-26T04:14:07.550Z,17.23
2023-03-26T04:16:35.082Z,13.47
2023-03-26T04:19:10.566Z,10.50
2023-03-26T04:21:44.607Z,6.17
2023-03-26T04:24:18.615Z,13.87
2023-03-26T04:26:54.594Z,14.83
2023-03-26T04:29:27.970Z,11.33
2023-03-26T04:32:05.597Z,13.90
2023-03-26T04:34:40.568Z,13.43
2023-03-26T04:37:16.664Z,13.93
2023-03-26T04:39:52.958Z,13.77
2023-03-26T04:42:20.722Z,13.17
2023-03-26T04:44:58.936Z,16.37
2023-03-26T04:47:37.168Z,14.70
2023-03-26T04:50:15.985Z,13.03
2023-03-26T04:52:50.968Z,10.57
2023-03-26T04:55:45.977Z,11.10
2023-03-26T04:58:14.444Z,12.90
2023-03-26T05:00:49.933Z,11.83
2023-03-26T05:03:17.562Z,14.97
2023-03-26T05:05:52.048Z,11.63
2023-03-26T05:08:20.433Z,10.70
2023-03-26T05:10:55.072Z,11.10
2023-03-26T05:13:24.095Z,8.63
2023-03-26T05:15:58.956Z,10.73
2023-03-26T05:18:26.474Z,5.63
2023-03-26T05:21:00.933Z,11.17
2023-03-26T05:23:29.801Z,11.50
2023-03-26T05:26:05.387Z,10.63
2023-03-26T05:28:33.138Z,7.20
2023-03-26T05:31:08.001Z,9.00
2023-03-26T05:33:42.042Z,11.07
2023-03-26T05:36:13.497Z,8.13
2023-03-26T05:38:47.933Z,4.97
2023-03-26T05:41:23.969Z,7.43
2023-03-26T05:43:57.957Z,8.97
2023-03-26T05:46:31.992Z,6.33
2023-03-26T05:49:05.974Z,7.87
2023-03-26T05:51:46.930Z,9.63
2023-03-26T05:54:21.019Z,6.40
2023-03-26T05:56:54.981Z,6.73
2023-03-26T05:59:23.370Z,9.47
2023-03-26T06:01:57.980Z,11.63
2023-03-26T06:04:26.144Z,7.40
2023-03-26T06:07:00.963Z,4.67
2023-03-26T06:09:29.661Z,9.30
2023-03-26T06:12:03.953Z,6.43
2023-03-26T06:14:31.533Z,8.57
2023-03-26T06:17:05.951Z,7.47
2023-03-26T06:19:39.960Z,7.53
2023-03-26T06:22:07.475Z,4.27
2023-03-26T06:24:35.187Z,11.50
2023-03-26T06:27:09.992Z,9.03
2023-03-26T06:29:43.977Z,5.70
2023-03-26T06:32:19.670Z,7.50
2023-03-26T06:34:54.972Z,8.00
2023-03-26T06:37:22.853Z,12.43
2023-03-26T06:39:57.009Z,7.40
2023-03-26T06:43:07.138Z,8.50
2023-03-26T06:45:18.997Z,4.60
2023-03-26T06:47:46.544Z,9.87
2023-03-26T06:50:27.987Z,9.00
2023-03-26T06:53:02.981Z,8.67
2023-03-26T06:55:37.952Z,9.03
2023-03-26T06:58:05.438Z,11.70
2023-03-26T07:00:39.018Z,9.37
2023-03-26T07:03:12.973Z,7.67
2023-03-26T07:05:41.962Z,7.37
2023-03-26T07:08:16.005Z,7.33
2023-03-26T07:10:43.735Z,8.47
2023-03-26T07:13:17.966Z,13.37
2023-03-26T07:15:45.580Z,10.10
2023-03-26T07:22:10.956Z,8.73
2023-03-26T07:24:44.932Z,9.83
2023-03-26T07:27:51.950Z,7.97
2023-03-26T07:30:39.145Z,8.57
2023-03-26T07:33:51.960Z,10.93
2023-03-26T07:36:36.195Z,11.50
2023-03-26T07:39:59.061Z,15.93
2023-03-26T07:42:33.061Z,11.27
2023-03-26T07:45:20.013Z,9.17
2023-03-26T07:47:49.729Z,12.43
2023-03-26T07:50:32.012Z,9.37
2023-03-26T07:52:59.888Z,12.77
2023-03-26T07:55:34.959Z,16.97
2023-03-26T07:58:32.083Z,11.97
2023-03-26T08:01:25.985Z,7.63
2023-03-26T08:04:24.129Z,10.03
2023-03-26T08:07:15.005Z,8.10
2023-03-26T08:10:26.978Z,7.40
2023-03-26T08:13:24.947Z,15.10
2023-03-26T08:16:19.295Z,13.10
2023-03-26T08:19:00.659Z,11.77
2023-03-26T08:21:49.022Z,9.57
2023-03-26T08:24:40.959Z,8.63
2023-03-26T08:27:24.959Z,8.50
2023-03-26T08:30:09.519Z,4.70
2023-03-26T08:32:44.052Z,10.73
2023-03-26T08:35:24.134Z,6.70
2023-03-26T08:37:52.535Z,6.10
2023-03-26T08:41:20.162Z,6.03
2023-03-26T08:44:13.828Z,7.27
2023-03-26T08:47:08.070Z,8.40
2023-03-26T08:50:15.592Z,7.20
2023-03-26T08:53:49.017Z,5.70
2023-03-26T08:56:38.085Z,9.07
2023-03-26T08:59:32.762Z,7.47
2023-03-26T09:02:21.949Z,5.60
2023-03-26T09:05:37.022Z,7.40
2023-03-26T09:08:31.273Z,16.67
2023-03-26T09:11:53.984Z,5.37
2023-03-26T09:15:05.419Z,2.43
2023-03-26T09:18:02.474Z,1.47
2023-03-26T09:21:09.967Z,3.00
2023-03-26T09:23:59.855Z,4.87
2023-03-26T09:26:43.026Z,3.37
2023-03-26T09:29:53.003Z,4.20
2023-03-26T09:32:48.008Z,4.60
2023-03-26T09:35:48.994Z,2.27
2023-03-26T09:38:43.978Z,1.97
2023-03-26T09:41:22.390Z,3.97
2023-03-26T09:44:11.995Z,2.43
2023-03-26T09:47:26.041Z,4.80
2023-03-26T09:50:21.043Z,2.77
2023-03-26T09:53:14.993Z,2.87
2023-03-26T09:55:54.319Z,5.00
2023-03-26T09:58:43.448Z,4.57
2023-03-26T10:01:47.023Z,3.90
2023-03-26T10:04:49.119Z,2.13
2023-03-26T10:07:48.484Z,2.47
2023-03-26T10:10:33.020Z,3.10
2023-03-26T10:13:16.966Z,2.70
2023-03-26T10:16:00.118Z,2.72
2023-03-26T10:18:43.013Z,2.60
2023-03-26T10:21:20.109Z,2.65
2023-03-26T10:24:01.048Z,2.78
2023-03-26T10:26:31.335Z,1.30
2023-03-26T10:29:43.013Z,1.67
2023-03-26T10:32:38.168Z,1.65
2023-03-26T10:35:20.435Z,1.17
2023-03-26T10:38:14.100Z,0.85
2023-03-26T10:41:13.848Z,1.20
2023-03-26T10:44:08.046Z,1.98
2023-03-26T10:47:12.365Z,2.67
2023-03-26T10:49:52.794Z,0.95
2023-03-26T10:52:38.344Z,1.92
2023-03-26T10:55:27.942Z,1.80
2023-03-26T10:58:49.200Z,1.77
2023-03-26T11:01:25.492Z,2.15
2023-03-26T11:04:08.397Z,2.20
2023-03-26T11:07:09.662Z,2.15
2023-03-26T11:10:03.672Z,4.45
2023-03-26T11:13:12.372Z,1.70
2023-03-26T11:15:54.640Z,1.08
2023-03-26T11:18:54.382Z,2.17
2023-03-26T11:22:09.496Z,1.83
2023-03-26T11:25:15.324Z,1.65
2023-03-26T11:28:00.404Z,0.90
2023-03-26T11:30:59.702Z,2.55
2023-03-26T11:33:35.138Z,4.55
2023-03-26T11:36:15.447Z,1.10
2023-03-26T11:38:47.022Z,1.55
2023-03-26T11:41:33.453Z,3.85
2023-03-26T11:44:29.462Z,2.05
2023-03-26T11:47:11.415Z,1.40
2023-03-26T11:49:46.442Z,2.92
2023-03-26T11:52:15.903Z,1.88
2023-03-26T11:54:54.386Z,1.75
2023-03-26T11:57:26.874Z,1.52
2023-03-26T12:00:17.632Z,4.55
2023-03-26T12:02:49.036Z,3.85
2023-03-26T12:05:33.750Z,3.75
2023-03-26T12:08:04.548Z,3.10
2023-03-26T12:10:49.643Z,4.25
2023-03-26T12:13:42.288Z,4.75
2023-03-26T12:16:25.557Z,2.13
2023-03-26T12:19:19.013Z,3.65
2023-03-26T12:21:55.182Z,3.75
2023-03-26T12:24:34.183Z,3.08
2023-03-26T12:27:35.200Z,8.75
2023-03-26T12:30:29.668Z,5.03
2023-03-26T12:33:03.815Z,6.47
2023-03-26T12:35:41.210Z,4.72
2023-03-26T12:38:42.677Z,4.15
2023-03-26T12:44:43.374Z,3.13
2023-03-26T12:44:47.302Z,2.75
2023-03-26T12:48:02.268Z,3.35
2023-03-26T12:50:51.742Z,5.07
2023-03-26T12:54:01.669Z,2.38
2023-03-26T12:57:12.286Z,4.55
2023-03-26T13:00:17.851Z,2.45
2023-03-26T13:03:23.336Z,5.07
2023-03-26T13:06:12.270Z,5.60
2023-03-26T13:09:03.766Z,6.22
2023-03-26T13:12:15.458Z,3.38
2023-03-26T13:15:10.154Z,9.65
2023-03-26T13:17:59.598Z,4.93
2023-03-26T13:21:02.271Z,3.50
2023-03-26T13:23:49.391Z,3.72
2023-03-26T13:26:35.414Z,6.97
2023-03-26T13:29:17.936Z,5.95
2023-03-26T13:32:29.248Z,2.85
2023-03-26T13:34:57.828Z,2.22
2023-03-26T13:37:50.230Z,2.55
2023-03-26T13:40:48.330Z,2.90
2023-03-26T13:43:38.273Z,5.15
2023-03-26T13:46:26.316Z,2.05
2023-03-26T13:49:06.276Z,2.60
2023-03-26T13:52:00.277Z,3.40
2023-03-26T13:54:42.368Z,3.10
2023-03-26T13:57:35.307Z,3.28
2023-03-26T14:00:25.240Z,2.80
2023-03-26T14:03:40.344Z,2.38
2023-03-26T14:06:23.226Z,2.70
2023-03-26T14:09:05.845Z,3.65
2023-03-26T14:11:58.294Z,2.30
2023-03-26T14:14:48.983Z,4.43
2023-03-26T14:17:35.314Z,4.38
2023-03-26T14:20:40.400Z,5.15
2023-03-26T14:23:29.502Z,3.80
2023-03-26T14:26:20.838Z,5.03
2023-03-26T14:29:36.293Z,3.43
2023-03-26T14:32:37.273Z,2.03
2023-03-26T14:35:33.751Z,1.30
2023-03-26T14:38:29.241Z,0.87
2023-03-26T14:41:15.434Z,0.87
2023-03-26T14:43:58.381Z,0.70
2023-03-26T14:46:34.979Z,4.80
2023-03-26T14:49:26.578Z,0.37
2023-03-26T14:52:13.276Z,0.30
2023-03-26T14:54:45.823Z,1.07
2023-03-26T14:57:57.261Z,1.63
2023-03-26T15:00:27.866Z,0.20
2023-03-26T15:03:27.256Z,0.00
2023-03-26T15:06:23.236Z,0.00
2023-03-26T15:09:13.426Z,1.03
2023-03-26T15:12:43.504Z,0.00
2023-03-26T15:16:10.954Z,0.00
2023-03-26T15:19:04.746Z,0.10
2023-03-26T15:22:19.515Z,0.10
2023-03-26T15:25:09.796Z,0.30
2023-03-26T15:27:46.525Z,0.00
2023-03-26T15:31:14.931Z,0.00
2023-03-26T15:33:52.394Z,0.00
2023-03-26T15:37:05.544Z,0.30
2023-03-26T15:40:16.492Z,0.00
2023-03-26T15:43:10.508Z,0.40
2023-03-26T15:45:42.362Z,0.00
2023-03-26T15:48:19.532Z,0.10
2023-03-26T15:51:07.544Z,0.03
2023-03-26T15:54:10.570Z,0.20
2023-03-26T15:56:59.099Z,0.30
2023-03-26T16:00:05.770Z,0.50
2023-03-26T16:02:41.757Z,0.63
2023-03-26T16:05:41.593Z,0.00
2023-03-26T16:08:38.776Z,0.57
2023-03-26T16:11:19.583Z,1.63
2023-03-26T16:14:25.376Z,1.53
2023-03-26T16:16:59.582Z,4.53
2023-03-26T16:19:48.308Z,0.73
2023-03-26T16:23:01.629Z,1.93
2023-03-26T16:25:39.609Z,6.50
2023-03-26T16:28:14.557Z,0.83
2023-03-26T16:30:48.536Z,5.80
2023-03-26T16:33:40.631Z,0.50
2023-03-26T16:36:41.559Z,0.27
2023-03-26T16:39:17.070Z,4.13
2023-03-26T16:42:06.242Z,11.33
2023-03-26T16:44:52.814Z,2.77
2023-03-26T16:47:44.693Z,0.83
2023-03-26T16:50:52.928Z,1.07
2023-03-26T16:53:54.564Z,0.90
2023-03-26T16:57:03.607Z,0.20
2023-03-26T17:00:04.535Z,1.67
2023-03-26T17:03:01.050Z,0.60
2023-03-26T17:05:45.224Z,1.10
2023-03-26T17:08:36.900Z,1.40
2023-03-26T17:11:29.978Z,0.80
2023-03-26T17:14:25.949Z,1.70
2023-03-26T17:17:31.194Z,0.50
2023-03-26T17:20:31.089Z,2.73
2023-03-26T17:23:23.964Z,1.50
2023-03-26T17:26:27.940Z,2.27
2023-03-26T17:29:20.946Z,0.50
2023-03-26T17:32:15.001Z,2.23
2023-03-26T17:34:57.936Z,3.40
2023-03-26T17:37:34.957Z,2.00
2023-03-26T17:40:21.411Z,0.63
2023-03-26T17:43:10.031Z,2.77
2023-03-26T17:46:02.658Z,0.50
2023-03-26T17:48:36.642Z,3.90
2023-03-26T17:51:44.936Z,1.60
2023-03-26T17:54:37.972Z,1.30
2023-03-26T17:57:35.033Z,1.03
2023-03-26T18:00:13.951Z,4.80
2023-03-26T18:02:48.316Z,4.00
2023-03-26T18:05:23.956Z,2.80
2023-03-26T18:08:27.526Z,1.27
2023-03-26T18:11:30.922Z,2.63
2023-03-26T18:14:17.017Z,3.07
2023-03-26T18:16:59.986Z,3.50
2023-03-26T18:19:34.957Z,4.93
2023-03-26T18:22:20.070Z,3.27
2023-03-26T18:24:49.573Z,2.97
2023-03-26T18:27:28.914Z,1.10
2023-03-26T18:30:07.933Z,1.80
2023-03-26T18:32:47.983Z,1.37
2023-03-26T18:35:26.939Z,1.30
2023-03-26T18:38:06.959Z,3.63
2023-03-26T18:40:41.391Z,3.17
2023-03-26T18:43:34.358Z,0.43
2023-03-26T18:46:11.034Z,1.73
2023-03-26T18:48:45.080Z,1.67
2023-03-26T18:51:31.674Z,0.40
2023-03-26T18:54:03.440Z,0.60
2023-03-26T18:56:45.129Z,0.40
2023-03-26T18:59:29.187Z,0.20
2023-03-26T19:02:04.130Z,0.23
2023-03-26T19:04:35.185Z,0.20
2023-03-26T19:07:12.499Z,0.20
2023-03-26T19:09:48.027Z,0.20
2023-03-26T19:12:35.074Z,0.10
2023-03-26T19:15:11.225Z,0.00
2023-03-26T19:17:55.584Z,0.37
2023-03-26T19:20:28.200Z,0.10
2023-03-26T19:23:04.085Z,0.30
2023-03-26T19:25:47.015Z,0.50
2023-03-26T19:28:34.088Z,0.20
2023-03-26T19:31:15.021Z,0.60
2023-03-26T19:33:51.050Z,0.20
2023-03-26T19:36:23.875Z,0.20
2023-03-26T19:39:08.056Z,1.17
2023-03-26T19:41:44.001Z,0.13
2023-03-26T19:44:36.178Z,0.63
2023-03-26T19:47:46.371Z,0.20
2023-03-26T19:50:47.858Z,0.33
2023-03-26T19:53:35.384Z,0.43
2023-03-26T19:56:13.837Z,1.60
2023-03-26T19:58:49.345Z,1.33
2023-03-26T20:01:19.274Z,1.20
2023-03-26T20:03:58.540Z,0.33
2023-03-26T20:06:41.679Z,3.37
2023-03-26T20:09:20.376Z,1.90
2023-03-26T20:11:47.910Z,1.60
2023-03-26T20:14:26.762Z,2.47
2023-03-26T20:16:54.898Z,1.00
2023-03-26T20:19:23.340Z,1.00
2023-03-26T20:21:59.392Z,0.90
2023-03-26T20:24:34.393Z,1.37
2023-03-26T20:27:01.868Z,1.40
2023-03-26T20:29:36.411Z,3.57
2023-03-26T20:32:13.349Z,3.07
2023-03-26T20:34:48.528Z,1.33
2023-03-26T20:37:24.398Z,3.00
2023-03-26T20:39:59.383Z,3.70
2023-03-26T20:42:29.721Z,2.63
2023-03-26T20:45:06.401Z,0.70
2023-03-26T20:47:41.486Z,2.23
2023-03-26T20:50:20.403Z,2.03
2023-03-26T20:52:54.576Z,1.50
2023-03-26T20:55:28.372Z,5.43
2023-03-26T20:58:04.117Z,0.90
2023-03-26T21:00:32.578Z,2.77
2023-03-26T21:03:06.421Z,1.10
2023-03-26T21:05:35.280Z,3.40
2023-03-26T21:08:09.445Z,4.57
2023-03-26T21:10:40.314Z,2.67
2023-03-26T21:13:46.426Z,5.03
2023-03-26T21:16:14.724Z,6.23
2023-03-26T21:18:49.370Z,3.30
2023-03-26T21:21:32.920Z,6.23
2023-03-26T21:24:18.396Z,2.60
2023-03-26T21:27:03.448Z,4.87
2023-03-26T21:29:31.184Z,3.77
2023-03-26T21:32:05.572Z,6.80
2023-03-26T21:34:34.222Z,2.83
2023-03-26T21:37:10.425Z,1.40
2023-03-26T21:39:38.842Z,3.37
2023-03-26T21:42:13.370Z,5.33
2023-03-26T21:44:41.468Z,2.70
2023-03-26T21:47:18.408Z,4.27
2023-03-26T21:49:54.924Z,4.27
2023-03-26T21:52:30.334Z,4.13
2023-03-26T21:55:07.430Z,1.63
2023-03-26T21:58:11.881Z,3.10
2023-03-26T22:01:00.590Z,1.13
2023-03-26T22:03:39.432Z,1.77
2023-03-26T22:06:20.988Z,0.80
2023-03-26T22:08:56.451Z,2.00
2023-03-26T22:11:24.142Z,6.83
2023-03-26T22:13:58.599Z,0.63
2023-03-26T22:16:26.175Z,0.73
2023-03-26T22:19:01.460Z,1.17
2023-03-26T22:21:30.823Z,1.93
2023-03-26T22:24:04.499Z,1.83
2023-03-26T22:26:32.290Z,2.07
2023-03-26T22:29:08.398Z,1.27
2023-03-26T22:31:38.268Z,1.30
2023-03-26T22:34:12.451Z,4.33
2023-03-26T22:36:40.446Z,2.30
2023-03-26T22:39:14.400Z,1.63
2023-03-26T22:41:49.435Z,1.40
2023-03-26T22:44:25.879Z,1.40
2023-03-26T22:47:01.648Z,3.13
2023-03-26T22:49:31.506Z,1.47
2023-03-26T22:52:14.407Z,1.40
2023-03-26T22:54:48.439Z,1.13
2023-03-26T22:57:19.507Z,1.23
2023-03-26T22:59:54.022Z,1.50
2023-03-26T23:02:28.302Z,1.20
2023-03-26T23:05:01.989Z,1.43
2023-03-26T23:07:38.207Z,1.40
2023-03-26T23:10:16.257Z,2.33
2023-03-26T23:12:43.754Z,2.00
2023-03-26T23:15:18.235Z,1.30
2023-03-26T23:17:54.593Z,2.53
2023-03-26T23:20:29.243Z,3.87
2023-03-26T23:23:04.200Z,1.50
2023-03-26T23:25:39.240Z,1.47
2023-03-26T23:28:13.285Z,2.17
2023-03-26T23:30:47.276Z,1.70
2023-03-26T23:33:15.434Z,1.30
2023-03-26T23:35:51.221Z,1.40
2023-03-26T23:38:22.965Z,0.73
2023-03-26T23:40:59.209Z,1.30
2023-03-26T23:43:37.650Z,1.40
2023-03-26T23:46:12.254Z,1.23
2023-03-26T23:48:43.511Z,1.30
2023-03-26T23:51:19.511Z,1.50
2023-03-26T23:53:47.681Z,1.20
2023-03-26T23:56:22.279Z,2.80
2023-03-26T23:58:49.963Z,1.00
